createdAt,value
2022-10-06T00:00:29.080Z,11.55
2022-10-06T00:03:03.536Z,11.57
2022-10-06T00:05:37.685Z,11.46
2022-10-06T00:08:12.435Z,11.47
2022-10-06T00:10:47.890Z,11.36
2022-10-06T00:13:22.289Z,11.22
2022-10-06T00:15:56.543Z,11.07
2022-10-06T00:18:31.661Z,11.01
2022-10-06T00:21:06.113Z,10.89
2022-10-06T00:23:40.629Z,10.90
2022-10-06T00:26:17.324Z,10.84
2022-10-06T00:28:51.876Z,10.78
2022-10-06T00:31:26.155Z,10.84
2022-10-06T00:34:00.648Z,10.59
2022-10-06T00:36:34.811Z,10.72
2022-10-06T00:39:09.275Z,10.45
2022-10-06T00:41:44.752Z,10.31
2022-10-06T00:44:19.080Z,10.38
2022-10-06T00:46:54.776Z,10.42
2022-10-06T00:49:33.763Z,10.45
2022-10-06T00:52:11.805Z,10.52
2022-10-06T00:54:46.489Z,10.49
2022-10-06T00:57:22.380Z,10.59
2022-10-06T00:59:57.065Z,10.39
2022-10-06T01:02:37.077Z,10.38
2022-10-06T01:05:17.335Z,10.28
2022-10-06T01:07:51.792Z,10.15
2022-10-06T01:10:28.065Z,10.17
2022-10-06T01:13:03.886Z,10.21
2022-10-06T01:15:40.908Z,10.30
2022-10-06T01:18:18.760Z,10.23
2022-10-06T01:20:59.240Z,10.18
2022-10-06T01:23:36.510Z,10.15
2022-10-06T01:26:13.584Z,9.98
2022-10-06T01:28:49.412Z,10.08
2022-10-06T01:31:24.507Z,10.03
2022-10-06T01:33:59.638Z,10.17
2022-10-06T01:36:35.001Z,10.05
2022-10-06T01:39:10.854Z,10.03
2022-10-06T01:41:47.755Z,10.04
2022-10-06T01:44:22.414Z,9.84
2022-10-06T01:46:57.802Z,10.13
2022-10-06T01:49:31.965Z,10.31
2022-10-06T01:52:06.427Z,10.22
2022-10-06T01:54:43.489Z,10.22
2022-10-06T01:57:17.904Z,10.04
2022-10-06T01:59:54.716Z,9.88
2022-10-06T02:02:32.125Z,9.72
2022-10-06T02:05:06.690Z,9.78
2022-10-06T02:07:42.017Z,9.80
2022-10-06T02:10:21.155Z,9.63
2022-10-06T02:12:56.004Z,9.58
2022-10-06T02:15:33.337Z,9.64
2022-10-06T02:18:07.683Z,9.64
2022-10-06T02:20:41.965Z,9.57
2022-10-06T02:23:16.060Z,9.61
2022-10-06T02:25:58.634Z,9.63
2022-10-06T02:28:33.938Z,9.78
2022-10-06T02:31:10.426Z,9.89
2022-10-06T02:33:44.937Z,9.72
2022-10-06T02:36:19.544Z,9.56
2022-10-06T02:38:53.883Z,9.50
2022-10-06T02:41:30.078Z,9.59
2022-10-06T02:44:04.326Z,9.61
2022-10-06T02:46:38.770Z,9.69
2022-10-06T02:49:13.438Z,9.62
2022-10-06T02:51:47.860Z,9.57
2022-10-06T02:54:23.335Z,9.35
2022-10-06T02:56:59.291Z,9.32
2022-10-06T02:59:34.057Z,9.29
2022-10-06T03:02:08.464Z,9.32
2022-10-06T03:04:42.827Z,9.51
2022-10-06T03:07:18.012Z,9.64
2022-10-06T03:09:52.962Z,9.68
2022-10-06T03:12:30.087Z,9.63
2022-10-06T03:15:04.277Z,9.67
2022-10-06T03:17:39.259Z,9.74
2022-10-06T03:20:15.172Z,9.59
2022-10-06T03:22:50.440Z,9.45
2022-10-06T03:25:24.606Z,9.41
2022-10-06T03:28:00.705Z,9.32
2022-10-06T03:30:36.285Z,9.51
2022-10-06T03:33:11.047Z,9.51
2022-10-06T03:35:45.179Z,9.60
2022-10-06T03:38:19.636Z,9.47
2022-10-06T03:40:54.281Z,9.49
2022-10-06T03:43:30.200Z,9.39
2022-10-06T03:46:06.054Z,9.43
2022-10-06T03:48:41.281Z,9.47
2022-10-06T03:51:17.187Z,9.38
2022-10-06T03:53:52.891Z,9.37
2022-10-06T03:56:29.308Z,12.10
2022-10-06T03:59:07.343Z,12.30
2022-10-06T04:01:43.761Z,11.35
2022-10-06T04:04:18.577Z,10.92
2022-10-06T04:06:54.452Z,10.73
2022-10-06T04:09:28.876Z,10.26
2022-10-06T04:12:03.262Z,10.01
2022-10-06T04:14:39.640Z,10.04
2022-10-06T04:17:14.046Z,9.87
2022-10-06T04:19:48.778Z,9.75
2022-10-06T04:22:22.774Z,9.77
2022-10-06T04:24:57.150Z,9.72
2022-10-06T04:27:31.387Z,9.58
2022-10-06T04:30:08.245Z,9.76
2022-10-06T04:32:42.894Z,9.46
2022-10-06T04:35:17.664Z,9.41
2022-10-06T04:37:53.013Z,9.26
2022-10-06T04:40:27.613Z,9.22
2022-10-06T04:43:02.754Z,9.09
2022-10-06T04:45:39.097Z,9.02
2022-10-06T04:48:13.456Z,9.37
2022-10-06T04:50:54.986Z,11.19
2022-10-06T04:53:30.637Z,12.34
2022-10-06T04:56:07.381Z,11.42
2022-10-06T04:58:43.427Z,11.06
2022-10-06T05:01:21.698Z,10.44
2022-10-06T05:03:57.869Z,10.08
2022-10-06T05:06:35.037Z,9.67
2022-10-06T05:09:10.829Z,9.35
2022-10-06T05:11:46.163Z,9.48
2022-10-06T05:14:20.450Z,9.37
2022-10-06T05:16:56.299Z,9.27
2022-10-06T05:19:30.373Z,9.35
2022-10-06T05:22:04.847Z,9.43
2022-10-06T05:24:38.973Z,9.52
2022-10-06T05:27:13.639Z,9.42
2022-10-06T05:29:48.072Z,9.65
2022-10-06T05:32:23.969Z,9.64
2022-10-06T05:34:58.053Z,9.53
2022-10-06T05:37:32.586Z,9.22
2022-10-06T05:40:07.858Z,9.49
2022-10-06T05:42:42.409Z,9.51
2022-10-06T05:45:16.725Z,9.54
2022-10-06T05:47:57.701Z,9.52
2022-10-06T05:50:31.968Z,9.35
2022-10-06T05:53:06.392Z,9.47
2022-10-06T05:55:40.629Z,9.52
2022-10-06T05:58:18.492Z,9.45
2022-10-06T06:00:53.339Z,9.31
2022-10-06T06:03:29.427Z,9.48
2022-10-06T06:06:03.752Z,9.39
2022-10-06T06:08:38.177Z,9.36
2022-10-06T06:11:12.809Z,9.28
2022-10-06T06:13:47.270Z,9.37
2022-10-06T06:16:20.550Z,9.38
2022-10-06T06:18:57.169Z,9.49
2022-10-06T06:21:33.019Z,9.61
2022-10-06T06:24:08.286Z,9.63
2022-10-06T06:26:42.475Z,9.82
2022-10-06T06:29:16.903Z,9.45
2022-10-06T06:31:51.417Z,9.51
2022-10-06T06:34:29.148Z,9.32
2022-10-06T06:37:07.528Z,9.28
2022-10-06T06:39:44.276Z,9.19
2022-10-06T06:42:18.904Z,9.45
2022-10-06T06:44:55.512Z,9.65
2022-10-06T06:47:30.058Z,9.63
2022-10-06T06:50:10.408Z,9.77
2022-10-06T06:52:44.791Z,9.49
2022-10-06T06:55:19.653Z,9.65
2022-10-06T06:57:53.690Z,9.74
2022-10-06T07:00:32.531Z,10.00
2022-10-06T07:03:14.233Z,9.91
2022-10-06T07:05:50.184Z,9.98
2022-10-06T07:08:25.025Z,9.91
2022-10-06T07:10:59.572Z,9.98
2022-10-06T07:13:35.212Z,10.19
2022-10-06T07:16:29.612Z,10.37
2022-10-06T07:19:25.008Z,10.54
2022-10-06T07:22:21.172Z,10.75
2022-10-06T07:25:11.828Z,10.80
2022-10-06T07:27:47.560Z,10.73
2022-10-06T07:30:23.788Z,10.80
2022-10-06T07:32:58.561Z,11.03
2022-10-06T07:35:33.025Z,11.06
2022-10-06T07:38:09.768Z,11.07
2022-10-06T07:40:50.518Z,11.33
2022-10-06T07:43:38.376Z,12.05
2022-10-06T07:46:12.802Z,13.44
2022-10-06T07:48:49.432Z,12.71
2022-10-06T07:51:24.915Z,13.51
2022-10-06T07:54:00.983Z,13.79
2022-10-06T07:56:35.425Z,13.26
2022-10-06T07:59:09.805Z,13.11
2022-10-06T08:01:45.857Z,12.88
2022-10-06T08:04:20.408Z,12.86
2022-10-06T08:06:58.557Z,13.10
2022-10-06T08:09:34.319Z,13.03
2022-10-06T08:12:22.220Z,13.18
2022-10-06T08:14:56.822Z,13.40
2022-10-06T08:17:31.535Z,13.55
2022-10-06T08:20:10.593Z,13.68
2022-10-06T08:22:45.401Z,13.67
2022-10-06T08:25:21.492Z,13.85
2022-10-06T08:27:55.606Z,14.02
2022-10-06T08:30:30.104Z,14.19
2022-10-06T08:33:04.360Z,14.36
2022-10-06T08:35:39.658Z,14.54
2022-10-06T08:38:14.815Z,14.58
2022-10-06T08:40:50.878Z,14.70
2022-10-06T08:43:27.355Z,14.84
2022-10-06T08:46:04.498Z,14.95
2022-10-06T08:48:38.896Z,15.05
2022-10-06T08:51:26.673Z,15.01
2022-10-06T08:54:09.784Z,15.38
2022-10-06T08:56:56.389Z,15.37
2022-10-06T08:59:34.519Z,15.53
2022-10-06T09:02:23.991Z,15.92
2022-10-06T09:05:01.094Z,15.92
2022-10-06T09:07:43.879Z,16.11
2022-10-06T09:10:42.987Z,16.15
2022-10-06T09:13:23.393Z,16.14
2022-10-06T09:16:01.522Z,16.13
2022-10-06T09:21:40.382Z,16.33
2022-10-06T09:24:17.501Z,16.44
2022-10-06T09:26:52.440Z,16.49
2022-10-06T09:29:31.970Z,16.61
2022-10-06T09:32:06.881Z,16.71
2022-10-06T09:34:45.896Z,16.84
2022-10-06T09:37:20.392Z,16.83
2022-10-06T09:39:56.065Z,16.92
2022-10-06T09:42:35.848Z,16.91
2022-10-06T09:45:26.669Z,17.11
2022-10-06T09:48:12.939Z,17.34
2022-10-06T09:51:01.549Z,17.53
2022-10-06T09:53:37.746Z,17.65
2022-10-06T09:56:19.447Z,17.66
2022-10-06T09:58:57.352Z,17.76
2022-10-06T10:01:33.107Z,17.68
2022-10-06T10:04:20.491Z,17.61
2022-10-06T10:06:55.361Z,17.40
2022-10-06T10:09:31.152Z,17.39
2022-10-06T10:12:28.061Z,17.38
2022-10-06T10:15:04.728Z,17.30
2022-10-06T10:17:48.388Z,17.56
2022-10-06T10:20:50.614Z,17.67
2022-10-06T10:23:31.865Z,18.02
2022-10-06T10:26:27.212Z,17.99
2022-10-06T10:29:33.290Z,18.25
2022-10-06T10:32:15.355Z,18.27
2022-10-06T10:35:04.536Z,18.35
2022-10-06T10:37:44.442Z,18.41
2022-10-06T10:40:30.226Z,18.52
2022-10-06T10:43:21.652Z,18.59
2022-10-06T10:46:02.523Z,18.53
2022-10-06T10:48:43.796Z,18.75
2022-10-06T10:51:24.309Z,19.04
2022-10-06T10:54:05.200Z,19.01
2022-10-06T10:56:44.037Z,19.03
2022-10-06T10:59:23.311Z,18.83
2022-10-06T11:02:01.990Z,18.66
2022-10-06T11:04:42.107Z,18.79
2022-10-06T11:07:26.578Z,18.46
2022-10-06T11:10:10.240Z,18.52
2022-10-06T11:13:10.349Z,18.70
2022-10-06T11:15:49.735Z,18.95
2022-10-06T11:18:37.030Z,19.12
2022-10-06T11:21:16.758Z,19.07
2022-10-06T11:23:58.568Z,19.18
2022-10-06T11:26:57.924Z,19.06
2022-10-06T11:29:41.920Z,19.31
2022-10-06T11:32:28.224Z,19.52
2022-10-06T11:35:03.000Z,19.68
2022-10-06T11:37:42.155Z,19.39
2022-10-06T11:40:42.580Z,19.69
2022-10-06T11:43:28.765Z,19.76
2022-10-06T11:46:11.016Z,19.85
2022-10-06T11:48:46.677Z,19.85
2022-10-06T11:51:31.820Z,19.89
2022-10-06T11:54:48.368Z,20.10
2022-10-06T11:57:56.395Z,20.03
2022-10-06T12:00:54.709Z,19.79
2022-10-06T12:03:48.458Z,19.51
2022-10-06T12:06:59.636Z,19.47
2022-10-06T12:09:53.054Z,19.53
2022-10-06T12:13:31.780Z,19.53
2022-10-06T12:19:23.354Z,20.43
2022-10-06T12:22:02.054Z,20.45
2022-10-06T12:24:42.626Z,20.79
2022-10-06T12:27:44.246Z,21.01
2022-10-06T12:30:27.962Z,21.01
2022-10-06T12:33:05.736Z,21.22
2022-10-06T12:35:40.982Z,21.31
2022-10-06T12:39:02.240Z,21.53
2022-10-06T12:42:01.677Z,22.02
2022-10-06T12:44:39.886Z,22.08
2022-10-06T12:47:21.731Z,22.26
2022-10-06T12:50:00.743Z,22.22
2022-10-06T12:52:48.137Z,22.44
2022-10-06T12:55:45.602Z,22.74
2022-10-06T12:58:20.903Z,22.49
2022-10-06T13:01:00.205Z,22.57
2022-10-06T13:03:36.126Z,22.65
2022-10-06T13:06:11.337Z,22.70
2022-10-06T13:08:45.424Z,22.50
2022-10-06T13:11:22.027Z,22.55
2022-10-06T13:13:58.605Z,22.79
2022-10-06T13:16:39.471Z,22.81
2022-10-06T13:19:20.437Z,22.72
2022-10-06T13:21:55.527Z,22.91
2022-10-06T13:24:29.615Z,23.02
2022-10-06T13:27:04.149Z,22.68
2022-10-06T13:29:38.359Z,22.87
2022-10-06T13:32:18.589Z,22.84
2022-10-06T13:34:55.311Z,22.81
2022-10-06T13:37:29.932Z,22.71
2022-10-06T13:40:21.889Z,22.65
2022-10-06T13:42:56.743Z,22.21
2022-10-06T13:45:31.886Z,21.95
2022-10-06T13:48:09.799Z,21.84
2022-10-06T13:50:50.162Z,21.61
2022-10-06T13:53:31.159Z,21.34
2022-10-06T13:56:05.159Z,20.84
2022-10-06T13:58:39.628Z,21.14
2022-10-06T14:01:13.907Z,20.74
2022-10-06T14:03:48.260Z,20.77
2022-10-06T14:06:26.350Z,20.78
2022-10-06T14:09:02.004Z,20.78
2022-10-06T14:11:36.109Z,20.75
2022-10-06T14:14:18.032Z,20.78
2022-10-06T14:16:55.217Z,20.63
2022-10-06T14:19:34.916Z,20.54
2022-10-06T14:22:35.466Z,20.55
2022-10-06T14:25:13.224Z,20.51
2022-10-06T14:27:47.353Z,20.40
2022-10-06T14:30:22.104Z,20.36
2022-10-06T14:32:56.931Z,20.29
2022-10-06T14:35:31.370Z,20.42
2022-10-06T14:38:06.983Z,20.38
2022-10-06T14:40:42.128Z,20.27
2022-10-06T14:43:16.234Z,20.23
2022-10-06T14:45:50.613Z,20.17
2022-10-06T14:48:24.952Z,20.10
2022-10-06T14:51:03.937Z,19.93
2022-10-06T14:53:40.437Z,19.95
2022-10-06T14:56:16.063Z,19.89
2022-10-06T14:58:51.030Z,19.94
2022-10-06T15:01:26.899Z,19.81
2022-10-06T15:04:02.780Z,19.61
2022-10-06T15:06:54.644Z,19.51
2022-10-06T15:09:31.289Z,19.46
2022-10-06T15:12:06.239Z,19.49
2022-10-06T15:14:40.304Z,19.45
2022-10-06T15:17:14.673Z,19.53
2022-10-06T15:19:49.611Z,19.17
2022-10-06T15:22:24.039Z,18.96
2022-10-06T15:24:59.451Z,18.90
2022-10-06T15:27:51.702Z,18.88
2022-10-06T15:30:25.957Z,18.84
2022-10-06T15:33:06.102Z,18.67
2022-10-06T15:35:40.198Z,18.77
2022-10-06T15:38:14.746Z,19.00
2022-10-06T15:40:50.244Z,18.93
2022-10-06T15:43:44.633Z,18.74
2022-10-06T15:46:18.787Z,18.71
2022-10-06T15:48:53.844Z,18.61
2022-10-06T15:51:30.348Z,18.57
2022-10-06T15:54:04.960Z,18.61
2022-10-06T15:56:42.173Z,18.48
2022-10-06T15:59:17.647Z,18.32
2022-10-06T16:01:56.299Z,18.51
2022-10-06T16:04:35.985Z,18.51
2022-10-06T16:07:12.854Z,18.49
2022-10-06T16:09:48.896Z,18.29
2022-10-06T16:12:28.432Z,18.17
2022-10-06T16:15:02.826Z,18.27
2022-10-06T16:17:37.238Z,18.21
2022-10-06T16:20:12.189Z,18.18
2022-10-06T16:22:46.207Z,18.13
2022-10-06T16:25:20.555Z,18.14
2022-10-06T16:27:56.216Z,18.10
2022-10-06T16:30:30.979Z,18.08
2022-10-06T16:33:05.033Z,18.04
2022-10-06T16:35:39.365Z,18.03
2022-10-06T16:38:14.147Z,17.88
2022-10-06T16:40:55.265Z,17.82
2022-10-06T16:43:34.295Z,17.82
2022-10-06T16:46:10.428Z,17.74
2022-10-06T16:48:46.614Z,17.75
2022-10-06T16:51:22.695Z,17.69
2022-10-06T16:53:59.179Z,17.45
2022-10-06T16:56:35.908Z,17.54
2022-10-06T16:59:15.428Z,17.44
2022-10-06T17:01:50.992Z,17.31
2022-10-06T17:04:26.642Z,17.32
2022-10-06T17:07:01.648Z,17.47
2022-10-06T17:09:35.818Z,17.31
2022-10-06T17:12:10.207Z,17.13
2022-10-06T17:14:45.614Z,17.05
2022-10-06T17:17:20.011Z,17.11
2022-10-06T17:19:54.310Z,17.21
2022-10-06T17:22:28.800Z,17.11
2022-10-06T17:25:02.987Z,16.92
2022-10-06T17:27:41.946Z,16.93
2022-10-06T17:30:17.844Z,16.98
2022-10-06T17:32:52.355Z,16.89
2022-10-06T17:35:26.476Z,16.95
2022-10-06T17:38:02.707Z,16.97
2022-10-06T17:40:36.864Z,16.96
2022-10-06T17:43:11.289Z,16.84
2022-10-06T17:45:47.855Z,16.94
2022-10-06T17:48:29.269Z,16.87
2022-10-06T17:51:03.359Z,17.27
2022-10-06T17:53:40.857Z,17.82
2022-10-06T17:56:17.291Z,17.97
2022-10-06T17:58:54.656Z,17.66
2022-10-06T18:01:32.837Z,17.45
2022-10-06T18:04:08.427Z,17.24
2022-10-06T18:06:43.332Z,17.37
2022-10-06T18:09:18.450Z,17.59
2022-10-06T18:11:56.098Z,17.40
2022-10-06T18:14:33.657Z,16.94
2022-10-06T18:17:09.133Z,16.87
2022-10-06T18:19:44.177Z,16.79
2022-10-06T18:22:18.237Z,16.74
2022-10-06T18:24:55.091Z,16.57
2022-10-06T18:27:33.477Z,16.46
2022-10-06T18:30:09.377Z,16.49
2022-10-06T18:38:37.141Z,16.38
2022-10-06T18:41:14.338Z,16.30
2022-10-06T18:43:48.950Z,16.14
2022-10-06T18:46:41.199Z,16.87
2022-10-06T18:49:19.086Z,17.42
2022-10-06T18:51:58.319Z,17.72
2022-10-06T18:54:32.588Z,17.45
2022-10-06T18:57:07.178Z,16.92
2022-10-06T18:59:41.415Z,16.61
2022-10-06T19:02:16.862Z,16.63
2022-10-06T19:04:52.820Z,16.49
2022-10-06T19:07:30.933Z,16.26
2022-10-06T19:10:06.032Z,16.19
2022-10-06T19:12:40.571Z,15.93
2022-10-06T19:15:19.443Z,15.78
2022-10-06T19:17:55.373Z,15.70
2022-10-06T19:20:32.096Z,15.64
2022-10-06T19:23:06.444Z,15.60
2022-10-06T19:25:40.473Z,15.67
2022-10-06T19:28:16.113Z,15.63
2022-10-06T19:30:58.670Z,15.60
2022-10-06T19:33:33.881Z,15.60
2022-10-06T19:36:12.473Z,15.58
2022-10-06T19:38:47.959Z,15.40
2022-10-06T19:41:39.870Z,15.33
2022-10-06T19:44:14.155Z,15.29
2022-10-06T19:46:48.879Z,15.36
2022-10-06T19:49:24.576Z,15.38
2022-10-06T19:52:00.072Z,15.40
2022-10-06T19:54:34.490Z,15.36
2022-10-06T19:57:11.605Z,15.41
2022-10-06T19:59:47.523Z,15.37
2022-10-06T20:02:21.673Z,15.35
2022-10-06T20:04:56.020Z,15.29
2022-10-06T20:07:31.469Z,16.32
2022-10-06T20:10:07.505Z,16.85
2022-10-06T20:12:42.560Z,17.23
2022-10-06T20:15:16.916Z,17.01
2022-10-06T20:17:51.482Z,16.43
2022-10-06T20:20:26.025Z,16.23
2022-10-06T20:23:01.451Z,16.06
2022-10-06T20:25:35.852Z,15.88
2022-10-06T20:28:10.643Z,15.80
2022-10-06T20:30:50.082Z,15.73
2022-10-06T20:33:24.370Z,15.61
2022-10-06T20:36:04.484Z,15.53
2022-10-06T20:38:58.164Z,15.33
2022-10-06T20:41:33.787Z,15.19
2022-10-06T20:44:08.113Z,15.21
2022-10-06T20:46:42.999Z,14.99
2022-10-06T20:49:18.655Z,14.98
2022-10-06T20:51:53.188Z,15.03
2022-10-06T20:54:31.040Z,14.84
2022-10-06T20:57:09.550Z,14.88
2022-10-06T20:59:45.814Z,14.87
2022-10-06T21:02:20.263Z,14.72
2022-10-06T21:04:54.346Z,14.67
2022-10-06T21:07:28.855Z,14.58
2022-10-06T21:10:04.658Z,14.54
2022-10-06T21:12:40.112Z,14.73
2022-10-06T21:15:14.299Z,14.35
2022-10-06T21:17:49.075Z,14.21
2022-10-06T21:20:23.147Z,14.27
2022-10-06T21:22:57.587Z,14.25
2022-10-06T21:25:33.096Z,14.20
2022-10-06T21:28:07.510Z,14.03
2022-10-06T21:30:44.295Z,13.90
2022-10-06T21:33:18.848Z,14.01
2022-10-06T21:36:00.224Z,14.03
2022-10-06T21:38:37.469Z,14.09
2022-10-06T21:41:31.915Z,14.16
2022-10-06T21:44:08.317Z,14.13
2022-10-06T21:46:44.062Z,14.05
2022-10-06T21:49:20.489Z,14.01
2022-10-06T21:51:56.297Z,14.01
2022-10-06T21:54:30.733Z,14.03
2022-10-06T21:57:08.130Z,14.04
2022-10-06T21:59:42.555Z,14.01
2022-10-06T22:02:16.575Z,14.03
2022-10-06T22:04:52.117Z,13.94
2022-10-06T22:07:26.226Z,13.88
2022-10-06T22:10:01.574Z,13.82
2022-10-06T22:12:37.109Z,13.82
2022-10-06T22:15:12.430Z,13.78
2022-10-06T22:17:47.710Z,13.87
2022-10-06T22:20:22.061Z,13.99
2022-10-06T22:22:56.093Z,13.87
2022-10-06T22:25:30.587Z,13.73
2022-10-06T22:28:06.190Z,13.69
2022-10-06T22:30:40.503Z,13.76
2022-10-06T22:33:14.614Z,13.73
2022-10-06T22:35:52.229Z,13.55
2022-10-06T22:38:26.622Z,13.63
2022-10-06T22:41:01.871Z,13.62
2022-10-06T22:43:37.832Z,13.67
2022-10-06T22:46:13.428Z,13.61
2022-10-06T22:48:47.551Z,13.55
2022-10-06T22:51:22.649Z,13.57
2022-10-06T22:53:58.827Z,13.68
2022-10-06T22:56:34.656Z,13.66
2022-10-06T22:59:10.198Z,13.65
2022-10-06T23:01:44.609Z,13.49
2022-10-06T23:04:18.729Z,13.41
2022-10-06T23:06:53.077Z,13.41
2022-10-06T23:09:27.891Z,13.38
2022-10-06T23:12:02.189Z,13.42
2022-10-06T23:14:37.652Z,13.47
2022-10-06T23:17:12.009Z,13.54
2022-10-06T23:19:46.252Z,13.50
2022-10-06T23:22:22.712Z,13.58
2022-10-06T23:24:56.816Z,13.53
2022-10-06T23:27:31.322Z,13.46
2022-10-06T23:30:10.155Z,13.36
2022-10-06T23:32:45.309Z,13.26
2022-10-06T23:35:19.399Z,13.41
2022-10-06T23:37:53.815Z,13.36
2022-10-06T23:40:29.705Z,13.25
2022-10-06T23:43:04.121Z,13.22
2022-10-06T23:45:40.363Z,13.11
2022-10-06T23:48:14.814Z,13.39
2022-10-06T23:51:02.739Z,13.13
2022-10-06T23:53:37.452Z,13.11
2022-10-06T23:56:12.310Z,13.18
2022-10-06T23:58:46.802Z,13.11
